createdAt,value
2019-04-27T00:02:03.685Z,100956.47
2019-04-27T00:04:55.615Z,100979.47
2019-04-27T00:07:43.824Z,101015.10
2019-04-27T00:10:35.403Z,100937.86
2019-04-27T00:13:05.796Z,100972.97
2019-04-27T00:15:45.614Z,100966.98
2019-04-27T00:18:28.134Z,100976.50
2019-04-27T00:21:13.516Z,100962.52
2019-04-27T00:23:45.646Z,100972.07
2019-04-27T00:26:15.016Z,100985.97
2019-04-27T00:28:44.360Z,100968.69
2019-04-27T00:31:13.708Z,100987.27
2019-04-27T00:33:43.521Z,100993.77
2019-04-27T00:36:23.450Z,100954.72
2019-04-27T00:39:14.531Z,100952.44
2019-04-27T00:41:43.937Z,100958.41
2019-04-27T00:44:13.544Z,100967.07
2019-04-27T00:46:43.200Z,100961.87
2019-04-27T00:49:13.759Z,100949.72
2019-04-27T00:51:43.474Z,100977.06
2019-04-27T00:54:13.581Z,100955.16
2019-04-27T00:57:08.015Z,100968.69
2019-04-27T00:59:53.050Z,100974.67
2019-04-27T01:02:40.255Z,100971.66
2019-04-27T01:05:15.642Z,100997.15
2019-04-27T01:07:44.980Z,100970.77
2019-04-27T01:10:14.344Z,100985.44
2019-04-27T01:12:43.709Z,100931.23
2019-04-27T01:15:13.854Z,100973.62
2019-04-27T01:17:43.505Z,100989.22
2019-04-27T01:20:12.913Z,100973.25
2019-04-27T01:22:42.268Z,100962.84
2019-04-27T01:25:11.959Z,101023.56
2019-04-27T01:27:59.654Z,100989.34
2019-04-27T01:30:51.765Z,100989.95
2019-04-27T01:33:21.156Z,100971.41
2019-04-27T01:35:50.524Z,100993.52
2019-04-27T01:38:19.886Z,101016.92
2019-04-27T01:40:49.786Z,100989.09
2019-04-27T01:43:19.262Z,100996.05
2019-04-27T01:45:48.884Z,100983.89
2019-04-27T01:48:25.076Z,101077.75
2019-04-27T01:50:53.102Z,101055.94
2019-04-27T01:53:22.444Z,101084.66
2019-04-27T01:55:51.808Z,101090.86
2019-04-27T01:58:22.580Z,101065.05
2019-04-27T02:01:10.856Z,101057.89
2019-04-27T02:04:09.246Z,101063.22
2019-04-27T02:06:38.674Z,101063.19
2019-04-27T02:09:10.595Z,101040.66
2019-04-27T02:11:39.948Z,100996.88
2019-04-27T02:14:09.541Z,101000.74
2019-04-27T02:16:39.200Z,101049.17
2019-04-27T02:19:11.239Z,101058.56
2019-04-27T02:21:39.682Z,101036.25
2019-04-27T02:24:09.768Z,101018.80
2019-04-27T02:26:40.103Z,101040.88
2019-04-27T02:29:29.095Z,101014.39
2019-04-27T02:32:29.331Z,101029.35
2019-04-27T02:35:03.768Z,101033.59
2019-04-27T02:37:33.117Z,101043.81
2019-04-27T02:40:02.483Z,101062.62
2019-04-27T02:42:42.504Z,101064.81
2019-04-27T02:45:11.946Z,101060.68
2019-04-27T02:47:41.285Z,101041.98
2019-04-27T02:50:10.912Z,101035.50
2019-04-27T02:52:44.875Z,101085.24
2019-04-27T02:55:14.210Z,101023.25
2019-04-27T02:57:43.538Z,101020.21
2019-04-27T03:00:14.283Z,101029.57
2019-04-27T03:02:51.304Z,101039.81
2019-04-27T03:05:25.150Z,101053.98
2019-04-27T03:07:54.663Z,101053.41
2019-04-27T03:10:26.176Z,101068.54
2019-04-27T03:13:23.449Z,101078.48
2019-04-27T03:16:11.412Z,101115.75
2019-04-27T03:19:13.484Z,101093.66
2019-04-27T03:21:49.976Z,101073.73
2019-04-27T03:24:19.947Z,101108.80
2019-04-27T03:26:55.156Z,101068.88
2019-04-27T03:29:24.490Z,101077.94
2019-04-27T03:31:54.583Z,101118.13
2019-04-27T03:34:24.322Z,101159.25
2019-04-27T03:36:53.632Z,101092.56
2019-04-27T03:39:23.115Z,101113.34
2019-04-27T03:41:52.922Z,101133.72
2019-04-27T03:44:22.399Z,101119.84
2019-04-27T03:46:51.797Z,101125.03
2019-04-27T03:49:35.124Z,101158.84
2019-04-27T03:52:03.082Z,101135.88
2019-04-27T03:54:56.872Z,101136.31
2019-04-27T03:57:31.862Z,101118.13
2019-04-27T04:00:03.597Z,101135.46
2019-04-27T04:02:32.978Z,101153.61
2019-04-27T04:05:02.409Z,101140.62
2019-04-27T04:07:31.766Z,101145.75
2019-04-27T04:10:01.102Z,101174.77
2019-04-27T04:12:36.550Z,101157.06
2019-04-27T04:15:10.000Z,101160.96
2019-04-27T04:17:40.264Z,101186.09
2019-04-27T04:20:10.308Z,101185.64
2019-04-27T04:22:40.349Z,101176.08
2019-04-27T04:25:10.787Z,101210.19
2019-04-27T04:27:42.849Z,101202.87
2019-04-27T04:30:12.264Z,101191.56
2019-04-27T04:32:42.160Z,101215.80
2019-04-27T04:35:23.163Z,101204.96
2019-04-27T04:37:53.406Z,101220.99
2019-04-27T04:40:30.717Z,101231.39
2019-04-27T04:43:10.875Z,101222.73
2019-04-27T04:46:01.294Z,101211.56
2019-04-27T04:48:30.615Z,101233.64
2019-04-27T04:51:00.234Z,101241.84
2019-04-27T04:53:29.735Z,101237.88
2019-04-27T04:56:00.366Z,101255.62
2019-04-27T04:58:29.914Z,101254.77
2019-04-27T05:01:01.414Z,101266.88
2019-04-27T05:03:30.368Z,101258.23
2019-04-27T05:05:59.733Z,101274.26
2019-04-27T05:08:29.268Z,101272.52
2019-04-27T05:10:59.663Z,101281.20
2019-04-27T05:13:29.429Z,101274.70
2019-04-27T05:15:59.055Z,101290.70
2019-04-27T05:18:29.353Z,101305.38
2019-04-27T05:21:20.471Z,101322.77
2019-04-27T05:23:49.812Z,101307.63
2019-04-27T05:26:20.762Z,101305.88
2019-04-27T05:28:50.276Z,101318.02
2019-04-27T05:31:19.746Z,101328.38
2019-04-27T05:33:49.171Z,101317.58
2019-04-27T05:36:19.343Z,101347.90
2019-04-27T05:38:49.853Z,101345.78
2019-04-27T05:41:19.315Z,101344.48
2019-04-27T05:44:07.632Z,101367.04
2019-04-27T05:46:55.578Z,101380.44
2019-04-27T05:49:45.009Z,101356.27
2019-04-27T05:52:32.647Z,101370.11
2019-04-27T05:55:02.007Z,101382.25
2019-04-27T05:57:31.758Z,101397.87
2019-04-27T06:00:02.188Z,101377.52
2019-04-27T06:02:32.065Z,101377.08
2019-04-27T06:05:01.408Z,101399.58
2019-04-27T06:07:30.728Z,101393.94
2019-04-27T06:10:00.130Z,101435.95
2019-04-27T06:12:29.934Z,101429.87
2019-04-27T06:15:00.139Z,101430.70
2019-04-27T06:17:30.226Z,101432.05
2019-04-27T06:19:59.815Z,101430.70
2019-04-27T06:22:29.498Z,101435.89
2019-04-27T06:25:00.053Z,101444.09
2019-04-27T06:27:30.821Z,101501.68
2019-04-27T06:30:00.314Z,101487.39
2019-04-27T06:32:29.809Z,101484.37
2019-04-27T06:34:59.345Z,101477.87
2019-04-27T06:37:29.328Z,101481.69
2019-04-27T06:39:59.696Z,101481.63
2019-04-27T06:42:29.917Z,101531.36
2019-04-27T06:45:00.080Z,101500.17
2019-04-27T06:47:29.723Z,101501.47
2019-04-27T06:49:59.173Z,101487.66
2019-04-27T06:52:29.247Z,101495.80
2019-04-27T06:55:00.614Z,101496.09
2019-04-27T06:57:30.111Z,101504.22
2019-04-27T06:59:59.603Z,101499.31
2019-04-27T07:02:29.301Z,101507.87
2019-04-27T07:05:05.403Z,101513.42
2019-04-27T07:07:34.831Z,101514.13
2019-04-27T07:10:04.631Z,101531.35
2019-04-27T07:12:34.246Z,101532.44
2019-04-27T07:15:03.918Z,101521.56
2019-04-27T07:17:33.351Z,101538.37
2019-04-27T07:20:02.803Z,101540.47
2019-04-27T07:22:32.437Z,101547.77
2019-04-27T07:25:01.818Z,101546.38
2019-04-27T07:27:31.234Z,101541.58
2019-04-27T07:30:01.709Z,101537.55
2019-04-27T07:32:31.421Z,101559.22
2019-04-27T07:35:00.810Z,101594.33
2019-04-27T07:37:30.267Z,101560.96
2019-04-27T07:39:59.647Z,101568.32
2019-04-27T07:42:31.535Z,101565.28
2019-04-27T07:45:09.287Z,101578.19
2019-04-27T07:47:39.542Z,101595.98
2019-04-27T07:50:09.666Z,101573.59
2019-04-27T07:52:40.510Z,101587.45
2019-04-27T07:55:09.981Z,101601.40
2019-04-27T07:57:39.953Z,101636.01
2019-04-27T08:00:09.834Z,101601.16
2019-04-27T08:02:39.183Z,101610.97
2019-04-27T08:05:09.318Z,101587.40
2019-04-27T08:07:39.282Z,101592.06
2019-04-27T08:10:09.737Z,101614.47
2019-04-27T08:12:39.268Z,101607.05
2019-04-27T08:15:09.026Z,101606.09
2019-04-27T08:17:40.566Z,101622.16
2019-04-27T08:20:10.044Z,101613.94
2019-04-27T08:22:39.408Z,101615.20
2019-04-27T08:25:09.597Z,101611.74
2019-04-27T08:27:55.008Z,101622.19
2019-04-27T08:30:32.339Z,101617.55
2019-04-27T08:33:02.587Z,101634.05
2019-04-27T08:35:32.771Z,101641.85
2019-04-27T08:38:02.276Z,101680.47
2019-04-27T08:40:31.632Z,101649.66
2019-04-27T08:43:01.006Z,101650.45
2019-04-27T08:45:30.390Z,101652.97
2019-04-27T08:47:59.765Z,101651.31
2019-04-27T08:50:30.578Z,101657.81
2019-04-27T08:53:00.812Z,101657.28
2019-04-27T08:55:30.315Z,101669.70
2019-04-27T08:57:59.660Z,101647.52
2019-04-27T09:00:29.186Z,101673.45
2019-04-27T09:02:59.526Z,101688.11
2019-04-27T09:05:29.158Z,101669.42
2019-04-27T09:08:29.401Z,101671.90
2019-04-27T09:11:13.929Z,101666.22
2019-04-27T09:14:00.501Z,101678.73
2019-04-27T09:16:59.546Z,101666.95
2019-04-27T09:19:49.151Z,101683.58
2019-04-27T09:22:20.532Z,101683.49
2019-04-27T09:24:52.448Z,101662.95
2019-04-27T09:27:21.792Z,101675.84
2019-04-27T09:29:51.113Z,101676.64
2019-04-27T09:32:20.488Z,101687.75
2019-04-27T09:34:49.827Z,101685.77
2019-04-27T09:37:22.439Z,101682.11
2019-04-27T09:39:51.851Z,101684.58
2019-04-27T09:42:21.207Z,101696.72
2019-04-27T09:44:50.553Z,101702.02
2019-04-27T09:47:19.925Z,101713.73
2019-04-27T09:49:49.285Z,101693.41
2019-04-27T09:52:26.306Z,101684.73
2019-04-27T09:54:49.724Z,101711.55
2019-04-27T09:57:19.118Z,101715.73
2019-04-27T09:59:48.660Z,101698.42
2019-04-27T10:02:18.163Z,101706.27
2019-04-27T10:04:47.697Z,101709.23
2019-04-27T10:07:17.206Z,101701.98
2019-04-27T10:09:47.466Z,101690.73
2019-04-27T10:12:17.131Z,101703.73
2019-04-27T10:14:47.891Z,101708.59
2019-04-27T10:17:18.521Z,101694.50
2019-04-27T10:19:47.925Z,101705.11
2019-04-27T10:22:17.862Z,101713.02
2019-04-27T10:24:47.349Z,101731.27
2019-04-27T10:27:16.769Z,101724.66
2019-04-27T10:29:46.850Z,101710.02
2019-04-27T10:32:16.390Z,101702.55
2019-04-27T10:34:45.977Z,101707.04
2019-04-27T10:37:16.094Z,101713.83
2019-04-27T10:39:46.058Z,101706.45
2019-04-27T10:42:15.883Z,101716.78
2019-04-27T10:44:46.193Z,101707.72
2019-04-27T10:47:16.480Z,101710.02
2019-04-27T10:49:46.577Z,101695.13
2019-04-27T10:52:17.152Z,101728.65
2019-04-27T10:54:46.899Z,101721.93
2019-04-27T10:57:16.411Z,101739.84
2019-04-27T10:59:46.220Z,101723.36
2019-04-27T11:02:15.660Z,101723.36
2019-04-27T11:05:16.120Z,101726.66
2019-04-27T11:07:46.334Z,101738.15
2019-04-27T11:10:16.362Z,101719.49
2019-04-27T11:12:45.943Z,101727.64
2019-04-27T11:15:16.379Z,101714.09
2019-04-27T11:17:47.662Z,101724.40
2019-04-27T11:20:17.728Z,101730.09
2019-04-27T11:22:47.238Z,101731.87
2019-04-27T11:25:16.925Z,101759.78
2019-04-27T11:27:46.427Z,101759.56
2019-04-27T11:30:17.772Z,101763.65
2019-04-27T11:32:47.265Z,101747.52
2019-04-27T11:35:28.144Z,101754.03
2019-04-27T11:37:58.350Z,101762.75
2019-04-27T11:40:27.809Z,101765.02
2019-04-27T11:42:57.404Z,101758.60
2019-04-27T11:45:28.471Z,101761.14
2019-04-27T11:47:57.975Z,101783.18
2019-04-27T11:50:27.321Z,101775.39
2019-04-27T11:52:56.789Z,101788.39
2019-04-27T11:55:27.323Z,101800.79
2019-04-27T11:57:57.424Z,101790.36
2019-04-27T12:00:27.728Z,101796.36
2019-04-27T12:02:58.204Z,101834.40
2019-04-27T12:05:27.589Z,101789.32
2019-04-27T12:07:56.954Z,101803.12
2019-04-27T12:10:26.463Z,101805.66
2019-04-27T12:12:56.385Z,101792.44
2019-04-27T12:15:26.336Z,101820.27
2019-04-27T12:17:56.296Z,101814.03
2019-04-27T12:20:26.050Z,101799.75
2019-04-27T12:22:55.427Z,101794.48
2019-04-27T12:25:26.173Z,101822.76
2019-04-27T12:28:05.021Z,101786.34
2019-04-27T12:31:05.360Z,101806.81
2019-04-27T12:33:35.807Z,101792.75
2019-04-27T12:36:06.752Z,101807.79
2019-04-27T12:38:36.638Z,101807.79
2019-04-27T12:41:06.791Z,101817.27
2019-04-27T12:43:37.507Z,101828.52
2019-04-27T12:46:07.063Z,101828.52
2019-04-27T12:48:37.530Z,101831.88
2019-04-27T12:51:06.944Z,101819.59
2019-04-27T12:53:52.118Z,101828.00
2019-04-27T12:56:30.040Z,101817.62
2019-04-27T12:59:21.171Z,101816.95
2019-04-27T13:01:50.549Z,101825.23
2019-04-27T13:04:22.732Z,101818.19
2019-04-27T13:06:52.069Z,101817.28
2019-04-27T13:09:21.412Z,101854.67
2019-04-27T13:11:50.770Z,101854.67
2019-04-27T13:14:20.105Z,101825.42
2019-04-27T13:16:49.589Z,101825.42
2019-04-27T13:19:18.945Z,101808.42
2019-04-27T13:21:48.285Z,101812.07
2019-04-27T13:24:17.789Z,101836.77
2019-04-27T13:26:47.257Z,101836.77
2019-04-27T13:29:16.778Z,101832.31
2019-04-27T13:31:46.115Z,101832.31
2019-04-27T13:34:15.933Z,101836.17
2019-04-27T13:36:45.787Z,101819.72
2019-04-27T13:39:15.780Z,101813.23
2019-04-27T13:41:46.266Z,101813.23
2019-04-27T13:44:16.087Z,101823.61
2019-04-27T13:47:03.381Z,101807.21
2019-04-27T13:49:49.644Z,101809.69
2019-04-27T13:52:26.390Z,101813.45
2019-04-27T13:54:55.824Z,101810.78
2019-04-27T13:57:26.570Z,101810.78
2019-04-27T13:59:56.084Z,101815.77
2019-04-27T14:02:30.210Z,101827.27
2019-04-27T14:04:56.519Z,101827.27
2019-04-27T14:07:26.650Z,101867.44
2019-04-27T14:09:56.113Z,101823.06
2019-04-27T14:12:25.594Z,101809.19
2019-04-27T14:14:54.912Z,101821.08
2019-04-27T14:17:24.285Z,101832.57
2019-04-27T14:19:53.664Z,101832.57
2019-04-27T14:22:23.014Z,101819.53
2019-04-27T14:24:52.543Z,101832.44
2019-04-27T14:27:23.694Z,101832.44
2019-04-27T14:29:53.083Z,101814.27
2019-04-27T14:32:22.450Z,101846.47
2019-04-27T14:34:51.944Z,101846.47
2019-04-27T14:37:21.487Z,101857.63
2019-04-27T14:39:50.860Z,101867.22
2019-04-27T14:42:20.239Z,101867.22
2019-04-27T14:44:49.608Z,101870.60
2019-04-27T14:47:19.040Z,101843.58
2019-04-27T14:49:49.069Z,101843.58
2019-04-27T14:52:18.862Z,101912.52
2019-04-27T14:54:50.693Z,101912.52
2019-04-27T14:57:20.512Z,101926.89
2019-04-27T14:59:50.292Z,101916.00
2019-04-27T15:02:19.714Z,101917.77
2019-04-27T15:04:49.141Z,101960.42
2019-04-27T15:07:18.506Z,101960.42
2019-04-27T15:09:49.780Z,101955.15
2019-04-27T15:12:19.146Z,101967.02
2019-04-27T15:14:48.533Z,101969.16
2019-04-27T15:17:23.325Z,101969.16
2019-04-27T15:19:57.345Z,101965.77
2019-04-27T15:22:30.155Z,101995.95
2019-04-27T15:25:09.401Z,101952.55
2019-04-27T15:27:37.698Z,101952.55
2019-04-27T15:30:11.502Z,101934.36
2019-04-27T15:33:05.338Z,101943.50
2019-04-27T15:35:44.026Z,101943.50
2019-04-27T15:38:18.593Z,101966.55
2019-04-27T15:41:03.571Z,101940.07
2019-04-27T15:43:35.211Z,101951.00
2019-04-27T15:46:04.611Z,101951.00
2019-04-27T15:48:34.223Z,101947.30
2019-04-27T15:51:09.522Z,101936.50
2019-04-27T15:53:34.790Z,101936.50
2019-04-27T15:56:04.243Z,101924.72
2019-04-27T15:58:33.615Z,101925.85
2019-04-27T16:01:09.054Z,101925.85
2019-04-27T16:03:35.666Z,101928.56
2019-04-27T16:06:10.028Z,101940.87
2019-04-27T16:08:38.269Z,101940.87
2019-04-27T16:11:09.959Z,101931.70
2019-04-27T16:13:38.410Z,101947.94
2019-04-27T16:16:08.434Z,101973.13
2019-04-27T16:18:38.807Z,101973.13
2019-04-27T16:21:10.767Z,101980.19
2019-04-27T16:23:42.911Z,102000.14
2019-04-27T16:26:15.060Z,102000.14
2019-04-27T16:28:43.046Z,101981.09
2019-04-27T16:31:12.967Z,101984.37
2019-04-27T16:33:42.448Z,101984.37
2019-04-27T16:36:11.788Z,101965.25
2019-04-27T16:38:50.137Z,101958.13
2019-04-27T16:41:19.531Z,101958.13
2019-04-27T16:43:49.109Z,101962.37
2019-04-27T16:46:21.032Z,101962.37
2019-04-27T16:48:49.526Z,101962.59
2019-04-27T16:51:18.901Z,101962.59
2019-04-27T16:53:48.430Z,101979.42
2019-04-27T16:56:20.432Z,101968.80
2019-04-27T16:58:56.304Z,101968.80
2019-04-27T17:01:25.126Z,102020.34
2019-04-27T17:03:54.986Z,101987.22
2019-04-27T17:06:24.484Z,101996.84
2019-04-27T17:08:57.470Z,102004.16
2019-04-27T17:11:24.894Z,101979.29
2019-04-27T17:14:03.408Z,101986.21
2019-04-27T17:16:44.365Z,101992.06
2019-04-27T17:19:17.213Z,102008.10
2019-04-27T17:21:48.373Z,102017.27
2019-04-27T17:24:49.337Z,102016.41
2019-04-27T17:27:22.043Z,102024.07
2019-04-27T17:29:57.708Z,102011.09
2019-04-27T17:32:49.304Z,102035.19
2019-04-27T17:35:18.763Z,102035.19
2019-04-27T17:37:48.851Z,102047.79
2019-04-27T17:40:18.334Z,102050.95
2019-04-27T17:42:48.233Z,102029.63
2019-04-27T17:45:19.405Z,102032.91
2019-04-27T17:47:48.692Z,102044.05
2019-04-27T17:50:24.853Z,102044.05
2019-04-27T17:52:54.880Z,102068.82
2019-04-27T17:55:24.450Z,102067.72
2019-04-27T17:57:51.726Z,102067.72
2019-04-27T18:00:22.251Z,102108.73
2019-04-27T18:02:51.663Z,102091.88
2019-04-27T18:05:21.159Z,102091.88
2019-04-27T18:07:50.560Z,102091.56
2019-04-27T18:10:23.842Z,102097.30
2019-04-27T18:12:51.078Z,102096.81
2019-04-27T18:15:20.428Z,102096.81
2019-04-27T18:17:53.841Z,102101.88
2019-04-27T18:20:25.182Z,102105.29
2019-04-27T18:23:03.521Z,102105.29
2019-04-27T18:25:40.438Z,102115.97
2019-04-27T18:28:20.187Z,102107.20
2019-04-27T18:31:03.358Z,102107.20
2019-04-27T18:33:37.029Z,102130.73
2019-04-27T18:36:07.296Z,102146.50
2019-04-27T18:38:36.779Z,102146.59
2019-04-27T18:41:08.139Z,102132.36
2019-04-27T18:43:38.576Z,102132.36
2019-04-27T18:46:09.113Z,102136.48
2019-04-27T18:48:58.479Z,102148.69
2019-04-27T18:51:38.440Z,102142.25
2019-04-27T18:54:08.196Z,102144.06
2019-04-27T18:56:38.425Z,102144.06
2019-04-27T18:59:08.689Z,102154.68
2019-04-27T19:01:38.041Z,102154.68
2019-04-27T19:04:08.677Z,102173.57
2019-04-27T19:06:39.162Z,102195.69
2019-04-27T19:09:08.593Z,102195.69
2019-04-27T19:11:55.767Z,102167.57
2019-04-27T19:14:15.170Z,102185.64
2019-04-27T19:16:44.517Z,102185.64
2019-04-27T19:19:13.884Z,102189.28
2019-04-27T19:21:43.258Z,102213.73
2019-04-27T19:24:12.616Z,102208.64
2019-04-27T19:27:17.860Z,102200.91
2019-04-27T19:29:50.587Z,102219.38
2019-04-27T19:32:19.960Z,102230.74
2019-04-27T19:34:49.321Z,102230.74
2019-04-27T19:37:18.687Z,102227.80
2019-04-27T19:39:49.771Z,102248.29
2019-04-27T19:42:20.381Z,102230.56
2019-04-27T19:44:49.993Z,102240.62
2019-04-27T19:47:19.378Z,102247.21
2019-04-27T19:49:48.718Z,102252.53
2019-04-27T19:52:22.506Z,102259.52
2019-04-27T19:54:50.649Z,102263.11
2019-04-27T19:57:31.834Z,102266.58
2019-04-27T19:59:54.992Z,102276.64
2019-04-27T20:02:24.348Z,102279.70
2019-04-27T20:05:02.398Z,102283.67
2019-04-27T20:07:31.757Z,102290.63
2019-04-27T20:10:02.153Z,102295.02
2019-04-27T20:12:31.555Z,102307.63
2019-04-27T20:15:02.295Z,102305.09
2019-04-27T20:17:32.533Z,102312.03
2019-04-27T20:20:02.446Z,102313.78
2019-04-27T20:22:31.787Z,102335.51
2019-04-27T20:25:02.017Z,102322.03
2019-04-27T20:27:44.993Z,102328.55
2019-04-27T20:30:03.196Z,102329.86
2019-04-27T20:32:32.730Z,102344.24
2019-04-27T20:35:02.057Z,102336.42
2019-04-27T20:37:31.537Z,102337.28
2019-04-27T20:40:01.662Z,102339.42
2019-04-27T20:42:31.531Z,102349.02
2019-04-27T20:45:01.935Z,102342.94
2019-04-27T20:47:31.764Z,102339.91
2019-04-27T20:50:01.097Z,102342.13
2019-04-27T20:52:52.438Z,102325.20
2019-04-27T20:55:21.828Z,102336.06
2019-04-27T20:57:59.581Z,102338.23
2019-04-27T21:00:23.008Z,102358.66
2019-04-27T21:03:11.901Z,102342.63
2019-04-27T21:05:54.663Z,102326.57
2019-04-27T21:08:24.391Z,102336.61
2019-04-27T21:10:53.740Z,102330.09
2019-04-27T21:13:23.085Z,102327.06
2019-04-27T21:15:52.460Z,102334.87
2019-04-27T21:18:21.870Z,102328.80
2019-04-27T21:20:51.299Z,102330.16
2019-04-27T21:23:21.047Z,102336.31
2019-04-27T21:25:51.790Z,102321.98
2019-04-27T21:28:21.599Z,102316.38
2019-04-27T21:30:50.971Z,102318.98
2019-04-27T21:33:21.559Z,102317.27
2019-04-27T21:35:51.240Z,102322.05
2019-04-27T21:38:20.696Z,102314.66
2019-04-27T21:40:50.017Z,102316.84
2019-04-27T21:43:22.655Z,102306.42
2019-04-27T21:45:52.018Z,102315.96
2019-04-27T21:48:21.404Z,102309.89
2019-04-27T21:50:51.596Z,102311.24
2019-04-27T21:53:31.289Z,102311.24
2019-04-27T21:56:02.387Z,102308.22
2019-04-27T21:58:33.325Z,102310.39
2019-04-27T22:01:22.546Z,102310.39
2019-04-27T22:03:52.717Z,102308.27
2019-04-27T22:06:22.291Z,102310.44
2019-04-27T22:08:51.622Z,102312.63
2019-04-27T22:11:21.862Z,102311.81
2019-04-27T22:13:51.395Z,102313.98
2019-04-27T22:16:21.328Z,102307.47
2019-04-27T22:18:51.938Z,102318.75
2019-04-27T22:21:21.773Z,102308.77
2019-04-27T22:23:56.247Z,102322.22
2019-04-27T22:26:25.578Z,102320.05
2019-04-27T22:28:54.936Z,102311.33
2019-04-27T22:31:24.259Z,102319.14
2019-04-27T22:33:54.619Z,102323.47
2019-04-27T22:36:24.052Z,102328.24
2019-04-27T22:38:55.463Z,102328.26
2019-04-27T22:41:48.067Z,102331.34
2019-04-27T22:44:31.706Z,102337.38
2019-04-27T22:47:01.272Z,102339.15
2019-04-27T22:49:31.294Z,102340.89
2019-04-27T22:52:01.497Z,102336.56
2019-04-27T22:54:31.915Z,102322.67
2019-04-27T22:57:05.366Z,102322.28
2019-04-27T22:59:41.541Z,102322.28
2019-04-27T23:02:25.527Z,102354.42
2019-04-27T23:05:01.753Z,102334.88
2019-04-27T23:07:31.582Z,102346.66
2019-04-27T23:10:01.616Z,102357.52
2019-04-27T23:12:31.695Z,102352.30
2019-04-27T23:15:01.244Z,102354.45
2019-04-27T23:17:48.959Z,102350.98
2019-04-27T23:20:18.332Z,102351.47
2019-04-27T23:22:47.658Z,102348.91
2019-04-27T23:25:17.017Z,102341.11
2019-04-27T23:27:46.374Z,102321.14
2019-04-27T23:30:16.726Z,102327.70
2019-04-27T23:32:47.699Z,102330.30
2019-04-27T23:35:17.027Z,102329.88
2019-04-27T23:37:46.393Z,102323.80
2019-04-27T23:40:16.045Z,102322.08
2019-04-27T23:42:45.365Z,102334.72
2019-04-27T23:45:15.229Z,102338.63
2019-04-27T23:47:44.601Z,102346.44
2019-04-27T23:50:14.361Z,102351.66
2019-04-27T23:53:17.844Z,102359.03
2019-04-27T23:55:47.214Z,102374.27
2019-04-27T23:58:16.578Z,102386.00
